Time;durP1;ratioP1;P1;durP2;ratioP2;P2;SDS_P1;SDS_P2;PMS_P1;PMS_P2;Temp;Humidity;BMP_temperature;BMP_pressure;BME280_temperature;BME280_humidity;BME280_pressure;Samples;Min_cycle;Max_cycle;Signal;HPM_P1;HPM_P2
2023/02/28 00:02:46;;;;;;;3.53;2.92;;;;;;;3.03;48.94;101257.56;10362277;28;20057;-55
2023/02/28 00:07:49;;;;;;;2.92;2.63;;;;;;;3.02;49.77;101266.38;10360599;28;20104;-54
2023/02/28 00:12:51;;;;;;;3.30;3.00;;;;;;;2.95;50.66;101262.22;10366325;28;20057;-56
2023/02/28 00:17:53;;;;;;;5.25;3.38;;;;;;;2.94;51.10;101263.13;10359292;28;20076;-54
2023/02/28 00:22:55;;;;;;;4.68;3.75;;;;;;;2.94;51.35;101266.63;10363528;28;20053;-55
2023/02/28 00:27:57;;;;;;;4.15;3.58;;;;;;;2.93;51.06;101271.94;10357981;28;20052;-56
2023/02/28 00:32:59;;;;;;;4.18;3.22;;;;;;;2.98;51.14;101270.84;10359996;28;20502;-55
2023/02/28 00:38:01;;;;;;;3.45;3.15;;;;;;;2.91;51.69;101268.47;10362070;28;20057;-55
2023/02/28 00:43:03;;;;;;;3.78;3.47;;;;;;;2.86;52.14;101267.78;10361419;28;20617;-55
2023/02/28 00:48:06;;;;;;;4.03;3.63;;;;;;;2.85;52.10;101274.78;10362434;28;20507;-55
2023/02/28 00:53:07;;;;;;;3.05;2.75;;;;;;;2.78;52.55;101262.78;10357447;28;20372;-55
2023/02/28 00:58:09;;;;;;;3.40;3.10;;;;;;;2.77;52.84;101259.25;10362134;28;20094;-55
2023/02/28 01:03:10;;;;;;;3.72;3.17;;;;;;;2.76;53.58;101275.97;10355557;28;20065;-55
2023/02/28 01:08:13;;;;;;;3.78;3.20;;;;;;;2.73;54.01;101270.81;10372227;28;20128;-55
2023/02/28 01:13:15;;;;;;;3.33;3.03;;;;;;;2.76;54.12;101275.09;10367589;28;20046;-55
2023/02/28 01:18:18;;;;;;;3.15;2.85;;;;;;;2.72;54.06;101263.81;10365139;28;20698;-55
2023/02/28 01:23:21;;;;;;;3.17;2.88;;;;;;;2.71;54.37;101266.50;10367985;28;20057;-55
2023/02/28 01:28:23;;;;;;;3.53;3.22;;;;;;;2.53;54.49;101241.66;10370240;28;20204;-55
2023/02/28 01:33:25;;;;;;;3.90;3.53;;;;;;;2.62;54.95;101260.59;10369531;28;20056;-55
2023/02/28 01:38:27;;;;;;;4.13;3.08;;;;;;;2.60;54.92;101259.81;10364137;28;20659;-55
2023/02/28 01:43:49;;;;;;;4.00;3.60;;;;;;;2.52;55.11;101258.31;10352720;28;20673;-55
2023/02/28 01:49:00;;;;;;;3.40;3.10;;;;;;;2.58;54.77;101250.25;10368741;28;20052;-55
2023/02/28 01:54:13;;;;;;;3.45;3.17;;;;;;;2.46;55.11;101252.34;10362057;28;20054;-54
2023/02/28 01:59:24;;;;;;;3.60;3.30;;;;;;;2.41;54.64;101249.00;10365658;28;20612;-54
2023/02/28 02:04:32;;;;;;;4.25;3.85;;;;;;;2.29;54.34;101225.72;10361896;28;20735;-54
2023/02/28 02:09:34;;;;;;;3.17;2.88;;;;;;;2.44;53.96;101248.91;10364735;28;20056;-54
2023/02/28 02:15:05;;;;;;;3.28;2.97;;;;;;;2.45;54.30;101239.25;10363575;28;20678;-55
2023/02/28 02:20:40;;;;;;;2.85;2.65;;;;;;;2.28;54.24;101221.38;10347759;28;20055;-54
2023/02/28 02:26:15;;;;;;;3.00;2.72;;;;;;;2.29;54.01;101229.19;10367662;28;20065;-55
2023/02/28 02:31:52;;;;;;;3.80;3.40;;;;;;;2.22;54.42;101237.31;10379511;28;20046;-55
2023/02/28 02:37:00;;;;;;;3.30;3.00;;;;;;;2.16;54.35;101237.50;10362852;28;20038;-55
2023/02/28 02:42:10;;;;;;;3.90;3.53;;;;;;;2.09;54.31;101237.69;10388688;28;20140;-55
2023/02/28 02:47:16;;;;;;;3.17;2.88;;;;;;;2.01;54.17;101223.06;10363636;28;20053;-55
2023/02/28 02:52:24;;;;;;;3.33;3.05;;;;;;;2.03;54.44;101232.63;10363980;28;20790;-55
2023/02/28 02:57:47;;;;;;;2.80;2.53;;;;;;;1.94;54.57;101222.38;10358152;28;20053;-56
2023/02/28 03:02:52;;;;;;;3.10;2.90;;;;;;;1.99;54.59;101240.63;10347097;28;20053;-55
2023/02/28 03:07:54;;;;;;;3.20;2.90;;;;;;;1.86;54.63;101229.59;10363597;28;20819;-60
2023/02/28 03:13:11;;;;;;;3.33;2.60;;;;;;;1.85;54.63;101225.28;10356525;28;20069;-57
2023/02/28 03:18:36;;;;;;;3.42;3.13;;;;;;;1.91;54.79;101223.31;10351584;28;20378;-54
2023/02/28 03:23:42;;;;;;;2.75;2.58;;;;;;;1.88;54.29;101236.56;10373622;28;20045;-55
2023/02/28 03:29:12;;;;;;;2.58;2.25;;;;;;;1.80;54.61;101235.03;10372139;28;20501;-55
2023/02/28 03:34:28;;;;;;;3.05;2.72;;;;;;;1.83;54.79;101225.34;10362908;28;20049;-55
2023/02/28 03:39:40;;;;;;;3.55;2.65;;;;;;;1.75;54.74;101228.16;10325679;28;20053;-55
2023/02/28 03:44:50;;;;;;;3.80;2.47;;;;;;;1.70;54.45;101227.44;10342206;28;20484;-56
2023/02/28 03:50:06;;;;;;;3.33;2.47;;;;;;;1.73;54.23;101222.09;10351181;28;20057;-55
2023/02/28 03:55:12;;;;;;;2.70;2.50;;;;;;;1.72;54.28;101222.97;10353530;28;20051;-56
2023/02/28 04:00:21;;;;;;;3.28;2.83;;;;;;;1.68;53.91;101233.63;10361866;28;20057;-55
2023/02/28 04:05:23;;;;;;;2.90;2.63;;;;;;;1.68;53.88;101226.63;10355901;28;20048;-55
2023/02/28 04:10:25;;;;;;;2.58;2.38;;;;;;;1.64;53.95;101224.13;10366379;28;20148;-56
2023/02/28 04:15:27;;;;;;;2.67;2.38;;;;;;;1.55;54.10;101236.59;10363431;28;20093;-56
2023/02/28 04:20:28;;;;;;;3.55;3.10;;;;;;;1.51;54.56;101237.56;10357949;28;20049;-56
2023/02/28 04:25:30;;;;;;;3.70;2.63;;;;;;;1.48;54.33;101231.53;10362259;28;20115;-57
2023/02/28 04:30:32;;;;;;;3.58;2.90;;;;;;;1.49;54.15;101235.91;10360073;28;20041;-56
2023/02/28 04:35:33;;;;;;;4.32;2.60;;;;;;;1.53;54.29;101242.78;10359007;28;20079;-57
2023/02/28 04:40:35;;;;;;;2.72;2.53;;;;;;;1.57;53.90;101239.16;10357868;28;20609;-57
2023/02/28 04:45:37;;;;;;;3.28;2.55;;;;;;;1.64;53.52;101245.97;10365405;28;20053;-56
2023/02/28 04:50:38;;;;;;;3.10;2.88;;;;;;;1.60;53.52;101220.72;10365638;28;21489;-57
2023/02/28 04:55:40;;;;;;;4.50;2.60;;;;;;;1.57;53.45;101205.91;10358920;28;20045;-57
2023/02/28 05:00:42;;;;;;;3.22;2.63;;;;;;;1.72;53.31;101232.63;10363630;28;20053;-56
2023/02/28 05:05:43;;;;;;;3.13;2.83;;;;;;;1.61;53.49;101235.56;10347686;28;20053;-56
2023/02/28 05:10:45;;;;;;;3.17;2.70;;;;;;;1.66;53.20;101233.66;10358816;28;20056;-57
2023/02/28 05:15:46;;;;;;;3.08;2.50;;;;;;;1.63;53.40;101228.50;10358194;28;20056;-57
2023/02/28 05:20:48;;;;;;;2.67;2.47;;;;;;;1.58;53.49;101219.91;10364527;28;20136;-56
2023/02/28 05:25:52;;;;;;;2.67;2.22;;;;;;;1.61;53.42;101243.44;10364893;28;20053;-56
2023/02/28 05:30:54;;;;;;;2.70;2.30;;;;;;;1.57;53.81;101249.66;10364648;28;20144;-57
2023/02/28 05:35:55;;;;;;;2.55;2.30;;;;;;;1.56;53.71;101242.69;10363063;28;20056;-55
2023/02/28 05:40:57;;;;;;;4.03;3.03;;;;;;;1.47;53.64;101248.19;10347559;28;20042;-57
2023/02/28 05:46:02;;;;;;;2.67;2.20;;;;;;;1.34;53.55;101237.16;10340929;28;21025;-55
2023/02/28 05:51:05;;;;;;;2.30;2.10;;;;;;;1.43;53.69;101257.91;10347297;28;20164;-56
2023/02/28 05:56:07;;;;;;;2.83;2.45;;;;;;;1.39;53.96;101258.88;10339095;28;20057;-57
2023/02/28 06:01:36;;;;;;;2.60;2.40;;;;;;;1.45;54.17;101253.47;10356134;28;20505;-56
2023/02/28 06:06:39;;;;;;;2.72;2.40;;;;;;;1.50;53.83;101248.09;10328812;28;20128;-56
2023/02/28 06:11:41;;;;;;;3.08;2.80;;;;;;;1.41;54.70;101250.09;10306498;28;20892;-57
2023/02/28 06:16:43;;;;;;;2.90;2.60;;;;;;;1.42;54.74;101262.28;10315220;28;20060;-56
2023/02/28 06:21:45;;;;;;;3.00;2.70;;;;;;;1.43;54.93;101265.78;10345209;28;20045;-55
2023/02/28 06:26:47;;;;;;;4.53;2.97;;;;;;;1.45;54.42;101266.59;10343955;28;20723;-56
2023/02/28 06:31:49;;;;;;;4.43;3.67;;;;;;;1.44;54.75;101275.34;10344194;28;20115;-55
2023/02/28 06:36:52;;;;;;;3.42;3.08;;;;;;;1.44;54.19;101274.50;10342838;28;20095;-57
2023/02/28 06:41:53;;;;;;;3.72;3.40;;;;;;;1.47;54.07;101264.81;10341644;28;20056;-57
2023/02/28 06:46:56;;;;;;;4.10;2.75;;;;;;;1.56;53.66;101274.19;10329110;28;20092;-54
2023/02/28 06:51:58;;;;;;;3.20;2.90;;;;;;;1.64;52.61;101282.72;10334842;28;20701;-55
2023/02/28 06:56:59;;;;;;;3.53;2.92;;;;;;;1.80;52.58;101284.91;10330239;28;20055;-56
2023/02/28 07:02:01;;;;;;;3.90;3.05;;;;;;;1.92;51.81;101285.47;10329682;28;20053;-54
2023/02/28 07:07:04;;;;;;;4.22;2.83;;;;;;;2.12;51.34;101290.13;10340342;28;20056;-54
2023/02/28 07:12:06;;;;;;;2.88;2.67;;;;;;;2.19;51.26;101287.31;10319075;28;20395;-54
2023/02/28 07:17:10;;;;;;;4.00;3.10;;;;;;;2.28;51.08;101298.44;10335970;28;20657;-55
2023/02/28 07:22:12;;;;;;;6.90;4.10;;;;;;;2.41;51.17;101300.69;10322842;28;20072;-54
2023/02/28 07:27:23;;;;;;;4.43;3.55;;;;;;;2.60;51.00;101304.50;10334539;28;20080;-54
2023/02/28 07:32:24;;;;;;;5.53;3.60;;;;;;;2.94;56.37;101298.19;10331346;28;20465;-57
2023/02/28 07:37:26;;;;;;;3.88;3.38;;;;;;;3.08;50.29;101303.00;10336319;28;20794;-56
2023/02/28 07:42:28;;;;;;;4.55;4.15;;;;;;;3.21;50.12;101303.44;10341613;28;20080;-57
2023/02/28 07:47:30;;;;;;;4.68;3.60;;;;;;;3.41;48.81;101300.16;10331866;28;20067;-57
2023/02/28 07:52:32;;;;;;;9.57;5.10;;;;;;;3.49;48.93;101298.13;10326087;28;20136;-58
2023/02/28 07:57:34;;;;;;;5.53;4.43;;;;;;;3.54;48.61;101300.59;10335303;28;20115;-58
2023/02/28 08:02:35;;;;;;;69.07;12.13;;;;;;;3.71;48.06;101297.41;10333870;28;20049;-58
2023/02/28 08:07:37;;;;;;;13.77;4.50;;;;;;;3.74;47.26;101313.09;10327644;28;20056;-59
2023/02/28 08:12:38;;;;;;;17.05;5.25;;;;;;;3.89;46.74;101312.53;10329807;28;20483;-59
2023/02/28 08:17:40;;;;;;;5.28;4.05;;;;;;;4.00;45.62;101304.25;10334573;28;20065;-58
2023/02/28 08:22:42;;;;;;;5.82;3.80;;;;;;;4.08;45.17;101311.84;10338235;28;20073;-57
2023/02/28 08:27:46;;;;;;;8.98;3.72;;;;;;;4.26;44.15;101310.31;10339628;28;20420;-59
2023/02/28 08:32:48;;;;;;;9.55;4.57;;;;;;;4.40;43.79;101305.41;10332592;28;20199;-59
2023/02/28 08:37:50;;;;;;;3.95;3.55;;;;;;;4.58;43.03;101310.91;10335827;28;20195;-58
2023/02/28 08:42:52;;;;;;;4.13;3.40;;;;;;;4.54;42.47;101275.84;10337402;28;20168;-59
2023/02/28 08:47:55;;;;;;;3.60;3.28;;;;;;;4.93;41.59;101312.13;10339702;28;20049;-61
2023/02/28 08:52:57;;;;;;;3.28;2.83;;;;;;;5.12;40.61;101314.06;10339068;28;20049;-59
2023/02/28 08:57:58;;;;;;;5.00;3.10;;;;;;;5.39;40.59;101316.44;10336368;28;20058;-59
2023/02/28 09:03:00;;;;;;;4.45;3.67;;;;;;;5.56;39.66;101313.97;10335753;28;20068;-59
2023/02/28 09:08:01;;;;;;;5.88;3.33;;;;;;;5.46;39.67;101310.88;10333399;28;20128;-59
2023/02/28 09:13:03;;;;;;;4.40;3.67;;;;;;;5.81;39.23;101307.59;10317390;28;21596;-59
2023/02/28 09:18:06;;;;;;;4.00;3.60;;;;;;;6.09;37.73;101309.06;10332564;28;20076;-58
2023/02/28 09:23:10;;;;;;;6.25;3.20;;;;;;;6.28;38.06;101304.66;10331036;28;20057;-59
2023/02/28 09:28:11;;;;;;;6.53;3.38;;;;;;;6.62;36.99;101300.47;10326880;28;20046;-58
2023/02/28 09:33:15;;;;;;;3.80;3.33;;;;;;;6.87;35.50;101307.22;10327122;28;20045;-57
2023/02/28 09:38:17;;;;;;;5.60;3.35;;;;;;;6.86;35.41;101292.25;10326251;28;20041;-58
2023/02/28 09:43:24;;;;;;;6.50;3.38;;;;;;;7.19;34.88;101302.13;10329173;28;20064;-57
2023/02/28 09:48:35;;;;;;;4.43;3.55;;;;;;;7.71;34.26;101299.50;10338890;28;20682;-58
2023/02/28 09:53:41;;;;;;;4.00;3.65;;;;;;;8.11;33.42;101302.72;10328655;28;20053;-58
2023/02/28 09:58:55;;;;;;;5.15;3.70;;;;;;;8.67;32.78;101300.56;10328039;28;20630;-60
2023/02/28 10:04:40;;;;;;;4.03;3.70;;;;;;;8.34;33.41;101303.25;10328039;28;20052;-60
2023/02/28 10:09:42;;;;;;;4.18;3.78;;;;;;;9.15;31.39;101266.00;10329885;28;20050;-57
2023/02/28 10:14:46;;;;;;;4.47;3.70;;;;;;;9.34;30.90;101288.84;10329488;28;20053;-59
2023/02/28 10:20:13;;;;;;;4.75;3.67;;;;;;;10.92;28.37;101302.16;10325445;28;20049;-60
2023/02/28 10:25:25;;;;;;;5.07;4.45;;;;;;;13.27;25.30;101291.16;10326921;28;20162;-59
2023/02/28 10:30:27;;;;;;;7.32;3.30;;;;;;;11.71;26.29;101282.72;10313384;28;20064;-60
2023/02/28 10:35:29;;;;;;;4.38;3.80;;;;;;;11.03;27.02;101281.94;10325920;28;20132;-59
2023/02/28 10:40:35;;;;;;;4.53;3.60;;;;;;;11.48;26.70;101294.03;10335653;28;20052;-61
2023/02/28 10:45:38;;;;;;;3.95;3.63;;;;;;;13.25;24.46;101293.06;10313752;28;20053;-66
2023/02/28 10:50:45;;;;;;;5.45;4.25;;;;;;;13.60;23.65;101278.84;10306389;28;20522;-66
2023/02/28 10:56:08;;;;;;;3.10;2.60;;;;;;;11.05;26.10;101293.34;10297276;28;20061;-64
2023/02/28 11:01:18;;;;;;;3.95;3.58;;;;;;;15.11;22.32;101285.59;10322086;28;20144;-64
2023/02/28 11:06:23;;;;;;;3.65;3.35;;;;;;;16.34;20.91;101276.03;10304219;28;20799;-66
2023/02/28 11:11:30;;;;;;;4.15;2.80;;;;;;;16.17;20.79;101270.34;10330036;28;20045;-65
2023/02/28 11:16:37;;;;;;;3.90;3.42;;;;;;;16.73;20.46;101274.28;10312368;28;20064;-65
2023/02/28 11:21:53;;;;;;;4.63;4.00;;;;;;;14.24;22.49;101264.91;10304334;28;20612;-65
2023/02/28 11:26:55;;;;;;;10.63;5.47;;;;;;;13.74;23.62;101264.44;10339492;28;20385;-63
2023/02/28 11:32:12;;;;;;;12.43;4.38;;;;;;;13.71;23.69;101262.84;10334354;28;20429;-63
2023/02/28 11:37:19;;;;;;;5.35;3.30;;;;;;;16.34;21.28;101268.00;10310441;28;20045;-64
2023/02/28 11:42:38;;;;;;;10.45;4.50;;;;;;;19.60;18.40;101249.44;10346977;28;20053;-66
2023/02/28 11:48:02;;;;;;;3.67;3.38;;;;;;;20.21;17.78;101259.44;10330414;28;20058;-61
2023/02/28 11:53:16;;;;;;;7.28;4.38;;;;;;;22.47;16.00;101258.06;10330146;28;20157;-60
2023/02/28 11:58:39;;;;;;;4.35;3.95;;;;;;;24.91;14.66;101244.28;10330472;28;20281;-59
2023/02/28 12:04:13;;;;;;;3.95;3.65;;;;;;;25.89;12.82;101233.53;10326840;28;20049;-57
2023/02/28 12:09:38;;;;;;;3.70;3.35;;;;;;;24.72;13.28;101241.13;10315842;28;20060;-63
2023/02/28 12:15:00;;;;;;;3.72;3.42;;;;;;;24.59;12.87;101239.13;10308431;28;20076;-62
2023/02/28 12:20:08;;;;;;;;;;;;;;;25.83;12.37;101240.63;10330491;28;20136;-65
2023/02/28 12:25:40;;;;;;;4.05;3.60;;;;;;;26.54;11.66;101244.13;10338830;28;19960;-63
2023/02/28 12:30:58;;;;;;;3.70;3.35;;;;;;;26.92;11.30;101222.59;10324313;28;20132;-62
2023/02/28 12:36:05;;;;;;;4.32;3.92;;;;;;;26.95;11.66;101224.91;10315793;28;20048;-63
2023/02/28 12:41:22;;;;;;;7.55;4.55;;;;;;;25.05;12.55;101219.66;10318743;28;20053;-63
2023/02/28 12:46:42;;;;;;;4.80;4.30;;;;;;;22.76;14.48;101224.00;10342188;28;21188;-64
2023/02/28 12:51:45;;;;;;;8.55;4.40;;;;;;;25.48;12.87;101198.91;10313058;28;20123;-66
2023/02/28 12:57:10;;;;;;;4.40;4.00;;;;;;;27.12;11.70;101211.66;10314694;28;20061;-64
2023/02/28 13:02:41;;;;;;;4.47;4.03;;;;;;;28.04;11.31;101210.94;10328468;28;20045;-63
2023/02/28 13:08:20;;;;;;;3.75;3.45;;;;;;;28.47;10.88;101201.25;10328749;28;20057;-64
2023/02/28 13:13:26;;;;;;;4.25;3.80;;;;;;;28.69;10.66;101185.34;10339934;28;20094;-63
2023/02/28 13:18:32;;;;;;;3.97;3.58;;;;;;;28.49;10.61;101194.50;10335712;28;21508;-63
2023/02/28 13:23:57;;;;;;;4.55;4.15;;;;;;;28.99;10.77;101204.72;10334431;28;20083;-64
2023/02/28 13:29:00;;;;;;;4.40;3.92;;;;;;;28.61;10.87;101202.03;10345848;28;20057;-66
2023/02/28 13:34:14;;;;;;;5.05;3.90;;;;;;;28.83;10.29;101191.56;10351292;28;20105;-64
2023/02/28 13:39:34;;;;;;;4.90;4.13;;;;;;;28.78;10.35;101175.81;10331114;28;20045;-63
2023/02/28 13:45:05;;;;;;;3.40;3.10;;;;;;;28.63;10.29;101194.44;10339498;28;20049;-64
2023/02/28 13:50:42;;;;;;;4.28;3.70;;;;;;;28.66;10.27;101196.72;10326609;28;20141;-66
2023/02/28 13:56:00;;;;;;;3.63;3.33;;;;;;;28.41;10.41;101189.28;10342380;28;20110;-69
2023/02/28 14:01:11;;;;;;;3.63;3.30;;;;;;;28.50;10.73;101182.47;10331325;28;21224;-64
2023/02/28 14:06:27;;;;;;;4.15;3.60;;;;;;;28.52;10.60;101185.81;10330485;28;20524;-64
2023/02/28 14:11:42;;;;;;;6.43;3.80;;;;;;;27.84;11.14;101173.50;10326803;28;20255;-67
2023/02/28 14:16:46;;;;;;;3.97;3.60;;;;;;;27.64;11.21;101178.22;10340601;28;20103;-65
2023/02/28 14:22:06;;;;;;;3.83;3.40;;;;;;;27.25;11.21;101180.78;10329980;28;20057;-62
2023/02/28 14:27:28;;;;;;;8.05;4.00;;;;;;;27.51;11.32;101168.16;10327983;28;20053;-63
2023/02/28 14:32:54;;;;;;;4.03;3.65;;;;;;;27.77;11.20;101160.91;10335156;28;20069;-64
2023/02/28 14:37:56;;;;;;;4.28;3.95;;;;;;;27.32;11.33;101162.50;10324575;28;20130;-63
2023/02/28 14:43:03;;;;;;;5.97;3.85;;;;;;;27.42;11.61;101159.31;10321286;28;20072;-64
2023/02/28 14:48:09;;;;;;;4.28;3.90;;;;;;;27.02;12.12;101155.78;10324951;28;20488;-63
2023/02/28 14:53:22;;;;;;;3.90;3.60;;;;;;;26.08;12.24;101159.16;10326861;28;20053;-62
2023/02/28 14:58:31;;;;;;;5.85;3.83;;;;;;;25.32;12.62;101153.69;10339589;28;20770;-62
2023/02/28 15:03:38;;;;;;;4.70;4.13;;;;;;;23.42;14.47;101139.25;10436257;28;20236;-61
2023/02/28 15:08:41;;;;;;;4.40;4.00;;;;;;;22.36;15.06;101148.09;10423616;28;20053;-61
2023/02/28 15:13:49;;;;;;;7.90;4.25;;;;;;;19.01;17.97;101143.09;10414165;28;20162;-61
2023/02/28 15:19:00;;;;;;;4.75;4.20;;;;;;;17.18;20.12;101149.19;10436213;28;20048;-61
2023/02/28 15:24:13;;;;;;;5.70;5.20;;;;;;;15.89;21.37;101149.22;10455028;28;20057;-60
2023/02/28 15:29:18;;;;;;;5.90;5.20;;;;;;;14.99;22.73;101147.19;10455871;28;20055;-62
2023/02/28 15:34:26;;;;;;;8.35;6.50;;;;;;;14.33;23.45;101161.56;10452250;28;20463;-62
2023/02/28 15:39:43;;;;;;;7.13;6.35;;;;;;;13.69;24.46;101165.78;10442995;28;20281;-61
2023/02/28 15:44:45;;;;;;;6.32;5.70;;;;;;;13.21;25.16;101160.59;10458388;28;20142;-59
2023/02/28 15:49:54;;;;;;;5.70;5.20;;;;;;;12.62;26.12;101146.31;10433082;28;20055;-59
2023/02/28 15:54:55;;;;;;;6.70;5.78;;;;;;;12.42;26.53;101169.16;10444325;28;20853;-59
2023/02/28 16:00:00;;;;;;;6.10;5.50;;;;;;;12.04;26.88;101162.16;10455748;28;20420;-59
2023/02/28 16:05:08;;;;;;;12.13;7.68;;;;;;;11.80;27.69;101162.03;10426581;28;20106;-62
2023/02/28 16:10:13;;;;;;;7.57;5.80;;;;;;;11.41;27.92;101164.75;10453460;28;20060;-59
2023/02/28 16:15:25;;;;;;;5.80;5.22;;;;;;;11.05;28.92;101165.47;10453544;28;20066;-61
2023/02/28 16:20:30;;;;;;;7.43;5.65;;;;;;;10.69;29.18;101154.53;10429020;28;20040;-59
2023/02/28 16:25:38;;;;;;;15.63;7.00;;;;;;;10.59;29.72;101172.91;10440855;28;20089;-59
2023/02/28 16:30:40;;;;;;;6.35;5.53;;;;;;;10.14;30.54;101176.75;10435304;28;20896;-59
2023/02/28 16:35:41;;;;;;;9.93;5.75;;;;;;;9.95;30.78;101187.69;10427556;28;20054;-61
2023/02/28 16:40:44;;;;;;;7.03;5.50;;;;;;;9.75;30.94;101178.31;10441480;28;20118;-62
2023/02/28 16:45:45;;;;;;;7.00;5.72;;;;;;;9.48;31.51;101179.91;10457821;28;20044;-60
2023/02/28 16:50:47;;;;;;;7.10;6.28;;;;;;;9.26;31.95;101195.44;10448199;28;20048;-61
2023/02/28 16:55:50;;;;;;;6.65;5.88;;;;;;;9.05;31.97;101187.78;10463186;28;20163;-60
2023/02/28 17:00:52;;;;;;;6.50;5.95;;;;;;;8.95;32.30;101213.22;10436724;28;20039;-59
2023/02/28 17:05:54;;;;;;;5.80;5.30;;;;;;;8.76;32.53;101214.25;10459752;28;20052;-59
2023/02/28 17:10:55;;;;;;;6.07;5.50;;;;;;;8.53;33.26;101217.34;10454847;28;20193;-60
2023/02/28 17:15:57;;;;;;;7.88;6.35;;;;;;;8.29;33.32;101208.00;10437001;28;20063;-61
2023/02/28 17:21:00;;;;;;;6.68;5.95;;;;;;;8.26;33.92;101220.59;10446074;28;20532;-60
2023/02/28 17:26:02;;;;;;;6.68;5.78;;;;;;;7.97;34.10;101220.38;10466504;28;20149;-60
2023/02/28 17:31:05;;;;;;;7.75;6.00;;;;;;;7.68;34.20;101214.84;10431994;28;20185;-59
2023/02/28 17:36:16;;;;;;;5.85;4.82;;;;;;;7.47;34.73;101203.59;10463229;28;20547;-60
2023/02/28 17:41:18;;;;;;;6.13;5.25;;;;;;;7.61;34.43;101239.94;10463468;28;20419;-60
2023/02/28 17:46:22;;;;;;;7.38;6.05;;;;;;;7.49;34.64;101245.91;10458198;28;20052;-60
2023/02/28 17:51:24;;;;;;;6.20;5.63;;;;;;;7.42;34.83;101253.31;10443336;28;20181;-59
2023/02/28 17:56:26;;;;;;;6.72;5.10;;;;;;;7.21;34.85;101242.03;10452228;28;20076;-59
2023/02/28 18:01:29;;;;;;;6.68;5.75;;;;;;;7.17;35.40;101266.94;10447452;28;20054;-60
2023/02/28 18:06:35;;;;;;;6.30;5.65;;;;;;;7.00;35.78;101260.69;10462273;28;20063;-60
2023/02/28 18:11:41;;;;;;;7.00;5.75;;;;;;;6.90;36.09;101275.31;10462328;28;20061;-61
2023/02/28 18:16:43;;;;;;;7.65;6.85;;;;;;;6.84;36.57;101272.97;10414525;28;20056;-61
2023/02/28 18:21:48;;;;;;;6.70;6.10;;;;;;;6.77;36.73;101275.06;10440284;28;20924;-61
2023/02/28 18:26:50;;;;;;;9.57;7.07;;;;;;;6.62;37.26;101267.84;10439424;28;20055;-59
2023/02/28 18:31:53;;;;;;;14.82;9.40;;;;;;;6.55;37.43;101278.72;10435048;28;20054;-61
2023/02/28 18:36:56;;;;;;;8.30;7.00;;;;;;;6.44;37.96;101278.38;10463712;28;20048;-60
2023/02/28 18:41:57;;;;;;;7.70;6.80;;;;;;;6.32;38.05;101278.94;10462348;28;20467;-60
2023/02/28 18:46:59;;;;;;;8.30;6.50;;;;;;;6.25;38.54;101275.72;10416354;28;20048;-62
2023/02/28 18:52:01;;;;;;;7.70;6.80;;;;;;;6.19;38.69;101276.00;10418186;28;20061;-61
2023/02/28 18:57:03;;;;;;;7.05;6.45;;;;;;;5.99;38.96;101276.91;10406104;28;20051;-60
2023/02/28 19:02:07;;;;;;;8.20;6.50;;;;;;;5.89;39.52;101271.16;10427907;28;20270;-60
2023/02/28 19:07:10;;;;;;;9.63;6.93;;;;;;;5.95;39.61;101276.16;10444921;28;20055;-60
2023/02/28 19:12:12;;;;;;;7.25;6.53;;;;;;;5.89;39.77;101281.72;10438914;28;20052;-60
2023/02/28 19:17:14;;;;;;;8.45;6.65;;;;;;;5.70;40.00;101271.09;10464440;28;20078;-61
2023/02/28 19:22:16;;;;;;;8.02;6.97;;;;;;;5.70;40.11;101267.59;10460001;28;20269;-59
2023/02/28 19:27:18;;;;;;;7.72;6.75;;;;;;;5.57;40.92;101270.78;10464632;28;20052;-65
2023/02/28 19:32:20;;;;;;;8.18;7.38;;;;;;;5.50;40.69;101274.63;10441051;28;20048;-61
2023/02/28 19:37:21;;;;;;;7.15;6.55;;;;;;;5.46;41.18;101281.81;10451401;28;20205;-63
2023/02/28 19:42:23;;;;;;;7.30;6.63;;;;;;;5.37;41.59;101278.69;10459296;28;20835;-62
2023/02/28 19:47:25;;;;;;;9.38;7.55;;;;;;;5.30;41.61;101284.25;10438625;28;20511;-61
2023/02/28 19:52:26;;;;;;;8.95;7.60;;;;;;;5.21;41.89;101279.34;10440910;28;20198;-61
2023/02/28 19:57:28;;;;;;;9.68;7.70;;;;;;;5.14;42.18;101278.72;10450791;28;20051;-64
2023/02/28 20:02:30;;;;;;;8.85;7.32;;;;;;;5.07;42.48;101286.97;10453011;28;20055;-61
2023/02/28 20:07:34;;;;;;;9.40;8.35;;;;;;;5.02;42.78;101291.59;10456735;28;20051;-60
2023/02/28 20:12:36;;;;;;;;;;;;;;;4.98;43.01;101295.25;10434195;28;20782;-62
2023/02/28 20:17:40;;;;;;;8.35;7.55;;;;;;;4.89;43.15;101293.84;10459514;28;19950;-61
2023/02/28 20:22:42;;;;;;;8.27;7.45;;;;;;;4.80;43.07;101276.59;10429725;28;20534;-61
2023/02/28 20:27:46;;;;;;;9.02;7.13;;;;;;;4.83;43.39;101287.03;10453596;28;20071;-61
2023/02/28 20:32:48;;;;;;;9.10;8.20;;;;;;;4.76;43.51;101269.75;10444213;28;20133;-62
2023/02/28 20:37:49;;;;;;;9.18;7.90;;;;;;;4.64;43.54;101257.03;10429346;28;20052;-62
2023/02/28 20:42:51;;;;;;;8.88;7.97;;;;;;;4.64;43.83;101262.31;10455441;28;20178;-61
2023/02/28 20:47:52;;;;;;;9.35;8.35;;;;;;;4.70;44.05;101288.44;10457147;28;20058;-60
2023/02/28 20:52:55;;;;;;;9.50;8.18;;;;;;;4.62;44.17;101275.56;10456457;28;20263;-61
2023/02/28 20:57:57;;;;;;;9.68;8.20;;;;;;;4.56;44.68;101289.88;10449156;28;20056;-61
2023/02/28 21:02:58;;;;;;;9.85;8.85;;;;;;;4.48;44.66;101283.16;10459744;28;21043;-59
2023/02/28 21:08:01;;;;;;;9.75;8.75;;;;;;;4.48;44.35;101275.25;10446423;28;20055;-62
2023/02/28 21:13:02;;;;;;;11.25;10.10;;;;;;;4.38;45.04;101266.81;10448697;28;20047;-59
2023/02/28 21:18:03;;;;;;;9.95;9.00;;;;;;;4.37;45.31;101280.94;10450298;28;20052;-60
2023/02/28 21:23:05;;;;;;;11.27;8.98;;;;;;;4.17;45.29;101266.72;10470390;28;20051;-61
2023/02/28 21:28:06;;;;;;;9.73;8.82;;;;;;;4.23;45.61;101278.81;10473668;28;20047;-60
2023/02/28 21:33:08;;;;;;;11.15;9.40;;;;;;;4.08;45.54;101259.16;10488936;28;20664;-60
2023/02/28 21:38:09;;;;;;;10.23;9.15;;;;;;;4.20;45.74;101276.28;10489238;28;20136;-60
2023/02/28 21:43:11;;;;;;;9.75;8.75;;;;;;;4.19;45.58;101278.06;10492630;28;20047;-61
2023/02/28 21:48:12;;;;;;;9.90;8.90;;;;;;;4.17;45.77;101282.53;10480830;28;20052;-60
2023/02/28 21:53:14;;;;;;;11.85;9.80;;;;;;;4.01;46.28;101276.97;10438345;28;20040;-60
2023/02/28 21:58:15;;;;;;;10.75;9.65;;;;;;;3.86;46.50;101257.31;10479799;28;20043;-62
2023/02/28 22:03:17;;;;;;;10.65;9.55;;;;;;;3.94;46.53;101272.84;10491881;28;20055;-63
2023/02/28 22:08:18;;;;;;;11.50;9.93;;;;;;;3.86;46.65;101265.22;10468772;28;20048;-60
2023/02/28 22:13:20;;;;;;;10.50;9.50;;;;;;;3.87;46.83;101277.50;10483047;28;20058;-60
2023/02/28 22:18:22;;;;;;;12.85;10.30;;;;;;;3.89;46.79;101287.97;10476101;28;20874;-59
2023/02/28 22:23:23;;;;;;;10.95;9.63;;;;;;;3.84;46.77;101282.88;10488021;28;20558;-59
2023/02/28 22:28:26;;;;;;;10.40;9.30;;;;;;;3.81;47.03;101285.59;10469264;28;20044;-60
2023/02/28 22:33:28;;;;;;;12.88;10.00;;;;;;;3.69;47.43;101291.31;10487048;28;20482;-59
2023/02/28 22:38:34;;;;;;;10.75;9.65;;;;;;;3.67;47.67;101301.03;10485793;28;20734;-59
2023/02/28 22:43:36;;;;;;;12.55;9.77;;;;;;;3.58;47.79;101296.94;10485479;28;20135;-59
2023/02/28 22:48:38;;;;;;;11.00;9.75;;;;;;;3.58;48.10;101296.09;10483531;28;20054;-62
2023/02/28 22:53:41;;;;;;;10.90;9.18;;;;;;;3.58;48.23;101296.09;10459900;28;20044;-60
2023/02/28 22:58:53;;;;;;;11.18;10.05;;;;;;;3.53;48.14;101285.72;10466543;28;20126;-59
2023/02/28 23:03:56;;;;;;;11.65;10.40;;;;;;;3.61;47.68;101301.25;10457551;28;20060;-59
2023/02/28 23:09:01;;;;;;;11.40;8.82;;;;;;;3.40;48.26;101302.84;10443074;28;20051;-58
2023/02/28 23:14:03;;;;;;;12.27;10.20;;;;;;;3.38;48.88;101305.53;10480865;28;20054;-59
2023/02/28 23:19:09;;;;;;;11.93;10.27;;;;;;;3.32;49.08;101303.13;10467107;28;20040;-58
2023/02/28 23:24:12;;;;;;;12.05;9.95;;;;;;;3.35;48.72;101308.28;10487062;28;20050;-58
2023/02/28 23:29:16;;;;;;;13.93;10.13;;;;;;;3.27;49.32;101302.38;10485636;28;20044;-58
2023/02/28 23:34:25;;;;;;;11.68;10.57;;;;;;;3.22;49.51;101299.91;10485071;28;20048;-59
2023/02/28 23:39:28;;;;;;;12.07;11.00;;;;;;;3.20;49.49;101296.47;10478293;28;20047;-64